sensor_id;sensor_type;location;lat;lon;timestamp;pressure;altitude;pressure_sealevel;temperature;humidity
141;BME280;65;48.778;9.160;2022-08-19T00:01:33;98070.66;;;21.90;63.20
141;BME280;65;48.778;9.160;2022-08-19T00:04:02;98071.34;;;21.84;63.19
141;BME280;65;48.778;9.160;2022-08-19T00:06:29;98066.97;;;21.83;63.28
141;BME280;65;48.778;9.160;2022-08-19T00:08:57;98060.59;;;21.76;63.19
141;BME280;65;48.778;9.160;2022-08-19T00:11:23;98063.94;;;21.78;63.57
141;BME280;65;48.778;9.160;2022-08-19T00:13:49;98061.09;;;21.79;63.24
141;BME280;65;48.778;9.160;2022-08-19T00:16:17;98069.31;;;21.78;63.51
141;BME280;65;48.778;9.160;2022-08-19T00:18:47;98073.38;;;21.74;63.80
141;BME280;65;48.778;9.160;2022-08-19T00:21:13;98076.56;;;21.77;63.54
141;BME280;65;48.778;9.160;2022-08-19T00:23:40;98069.34;;;21.70;63.80
141;BME280;65;48.778;9.160;2022-08-19T00:26:06;98074.22;;;21.74;63.51
141;BME280;65;48.778;9.160;2022-08-19T00:28:32;98077.22;;;21.79;63.41
141;BME280;65;48.778;9.160;2022-08-19T00:31:01;98067.66;;;21.77;63.49
141;BME280;65;48.778;9.160;2022-08-19T00:33:27;98070.00;;;21.80;63.49
141;BME280;65;48.778;9.160;2022-08-19T00:35:52;98056.72;;;21.78;63.47
141;BME280;65;48.778;9.160;2022-08-19T00:38:17;98055.03;;;21.77;63.66
141;BME280;65;48.778;9.160;2022-08-19T00:40:46;98039.56;;;21.79;63.39
141;BME280;65;48.778;9.160;2022-08-19T00:43:12;98032.69;;;21.69;63.81
141;BME280;65;48.778;9.160;2022-08-19T00:45:40;98034.88;;;21.57;63.93
141;BME280;65;48.778;9.160;2022-08-19T00:48:10;98039.44;;;21.57;64.17
141;BME280;65;48.778;9.160;2022-08-19T00:50:35;98045.97;;;21.62;64.17
141;BME280;65;48.778;9.160;2022-08-19T00:53:01;98043.81;;;21.58;64.02
141;BME280;65;48.778;9.160;2022-08-19T00:55:31;98044.13;;;21.55;64.47
141;BME280;65;48.778;9.160;2022-08-19T00:58:17;98057.41;;;21.56;64.19
141;BME280;65;48.778;9.160;2022-08-19T01:00:45;98053.88;;;21.56;64.14
141;BME280;65;48.778;9.160;2022-08-19T01:03:17;98056.25;;;21.51;64.40
141;BME280;65;48.778;9.160;2022-08-19T01:05:44;98055.75;;;21.55;64.59
141;BME280;65;48.778;9.160;2022-08-19T01:08:11;98053.06;;;21.55;64.51
141;BME280;65;48.778;9.160;2022-08-19T01:10:45;98065.16;;;21.59;64.22
141;BME280;65;48.778;9.160;2022-08-19T01:13:14;98060.94;;;21.57;64.28
141;BME280;65;48.778;9.160;2022-08-19T01:15:43;98053.56;;;21.59;64.38
141;BME280;65;48.778;9.160;2022-08-19T01:18:12;98059.44;;;21.62;64.26
141;BME280;65;48.778;9.160;2022-08-19T01:20:39;98043.97;;;21.56;64.09
141;BME280;65;48.778;9.160;2022-08-19T01:23:05;98050.69;;;21.52;64.39
141;BME280;65;48.778;9.160;2022-08-19T01:25:36;98045.00;;;21.47;64.67
141;BME280;65;48.778;9.160;2022-08-19T01:28:06;98048.34;;;21.49;64.75
141;BME280;65;48.778;9.160;2022-08-19T01:30:34;98054.91;;;21.46;64.97
141;BME280;65;48.778;9.160;2022-08-19T01:33:01;98049.53;;;21.46;64.78
141;BME280;65;48.778;9.160;2022-08-19T01:35:30;98042.31;;;21.47;65.00
141;BME280;65;48.778;9.160;2022-08-19T01:38:03;98042.63;;;21.44;64.95
141;BME280;65;48.778;9.160;2022-08-19T01:40:33;98038.41;;;21.33;65.56
141;BME280;65;48.778;9.160;2022-08-19T01:43:00;98041.81;;;21.43;65.08
141;BME280;65;48.778;9.160;2022-08-19T01:45:27;98045.66;;;21.41;65.19
141;BME280;65;48.778;9.160;2022-08-19T01:47:54;98041.28;;;21.40;65.18
141;BME280;65;48.778;9.160;2022-08-19T01:50:20;98037.41;;;21.34;65.52
141;BME280;65;48.778;9.160;2022-08-19T01:52:46;98035.38;;;21.36;65.72
141;BME280;65;48.778;9.160;2022-08-19T01:55:15;98038.41;;;21.33;65.73
141;BME280;65;48.778;9.160;2022-08-19T01:57:43;98037.06;;;21.29;65.85
141;BME280;65;48.778;9.160;2022-08-19T02:00:12;98035.72;;;21.25;65.80
141;BME280;65;48.778;9.160;2022-08-19T02:02:39;98043.13;;;21.23;66.29
141;BME280;65;48.778;9.160;2022-08-19T02:05:06;98048.00;;;21.28;66.08
141;BME280;65;48.778;9.160;2022-08-19T02:07:33;98047.31;;;21.34;65.86
141;BME280;65;48.778;9.160;2022-08-19T02:09:58;98049.66;;;21.37;65.83
141;BME280;65;48.778;9.160;2022-08-19T02:12:23;98054.88;;;21.30;66.03
141;BME280;65;48.778;9.160;2022-08-19T02:14:49;98043.13;;;21.23;66.61
141;BME280;65;48.778;9.160;2022-08-19T02:17:17;98034.34;;;21.21;66.42
141;BME280;65;48.778;9.160;2022-08-19T02:19:43;98032.84;;;21.19;66.72
141;BME280;65;48.778;9.160;2022-08-19T02:22:08;98040.75;;;21.20;66.55
141;BME280;65;48.778;9.160;2022-08-19T02:24:33;98034.69;;;21.18;66.60
141;BME280;65;48.778;9.160;2022-08-19T02:26:59;98044.09;;;21.14;67.30
141;BME280;65;48.778;9.160;2022-08-19T02:29:24;98047.97;;;21.20;66.98
141;BME280;65;48.778;9.160;2022-08-19T02:31:50;98050.81;;;21.10;67.16
141;BME280;65;48.778;9.160;2022-08-19T02:34:16;98047.63;;;21.06;67.70
141;BME280;65;48.778;9.160;2022-08-19T02:36:42;98053.84;;;21.07;67.62
141;BME280;65;48.778;9.160;2022-08-19T02:39:08;98046.09;;;21.04;67.57
141;BME280;65;48.778;9.160;2022-08-19T02:41:34;98047.78;;;21.05;67.60
141;BME280;65;48.778;9.160;2022-08-19T02:44:01;98047.94;;;21.03;67.89
141;BME280;65;48.778;9.160;2022-08-19T02:46:29;98047.44;;;20.92;67.85
141;BME280;65;48.778;9.160;2022-08-19T02:48:58;98042.06;;;20.92;68.15
141;BME280;65;48.778;9.160;2022-08-19T02:51:36;98039.38;;;20.92;68.32
141;BME280;65;48.778;9.160;2022-08-19T02:54:03;98037.03;;;20.97;68.03
141;BME280;65;48.778;9.160;2022-08-19T02:56:29;98039.22;;;20.93;68.33
141;BME280;65;48.778;9.160;2022-08-19T02:58:56;98041.56;;;20.88;68.27
141;BME280;65;48.778;9.160;2022-08-19T03:01:30;98037.97;;;20.79;68.97
141;BME280;65;48.778;9.160;2022-08-19T03:03:58;98034.84;;;20.84;68.79
141;BME280;65;48.778;9.160;2022-08-19T03:06:25;98030.75;;;20.80;68.93
141;BME280;65;48.778;9.160;2022-08-19T03:08:51;98037.13;;;20.79;69.25
141;BME280;65;48.778;9.160;2022-08-19T03:11:29;98046.38;;;20.76;69.44
141;BME280;65;48.778;9.160;2022-08-19T03:13:55;98050.28;;;20.82;69.20
141;BME280;65;48.778;9.160;2022-08-19T03:16:23;98049.56;;;20.72;69.76
141;BME280;65;48.778;9.160;2022-08-19T03:18:50;98062.78;;;20.57;71.31
141;BME280;65;48.778;9.160;2022-08-19T03:21:17;98060.22;;;20.47;72.21
141;BME280;65;48.778;9.160;2022-08-19T03:23:43;98058.47;;;20.38;72.89
141;BME280;65;48.778;9.160;2022-08-19T03:26:09;98055.69;;;20.22;73.81
141;BME280;65;48.778;9.160;2022-08-19T03:28:34;98054.81;;;20.13;73.96
141;BME280;65;48.778;9.160;2022-08-19T03:31:10;98052.31;;;20.12;73.89
141;BME280;65;48.778;9.160;2022-08-19T03:33:37;98054.16;;;20.11;74.84
141;BME280;65;48.778;9.160;2022-08-19T03:38:35;98056.84;;;20.11;74.14
141;BME280;65;48.778;9.160;2022-08-19T03:41:09;98058.50;;;20.12;73.54
141;BME280;65;48.778;9.160;2022-08-19T03:43:39;98060.72;;;20.17;73.07
141;BME280;65;48.778;9.160;2022-08-19T03:46:08;98062.06;;;20.21;72.84
141;BME280;65;48.778;9.160;2022-08-19T03:48:35;98054.69;;;20.23;72.93
141;BME280;65;48.778;9.160;2022-08-19T03:51:02;98054.94;;;20.30;72.39
141;BME280;65;48.778;9.160;2022-08-19T03:53:29;98045.34;;;20.27;72.08
141;BME280;65;48.778;9.160;2022-08-19T03:55:56;98054.78;;;20.31;71.92
141;BME280;65;48.778;9.160;2022-08-19T03:58:23;98058.09;;;20.25;72.11
141;BME280;65;48.778;9.160;2022-08-19T04:00:48;98059.09;;;20.24;72.12
141;BME280;65;48.778;9.160;2022-08-19T04:03:14;98058.94;;;20.26;72.23
141;BME280;65;48.778;9.160;2022-08-19T04:05:40;98060.06;;;20.23;72.13
141;BME280;65;48.778;9.160;2022-08-19T04:08:05;98061.13;;;20.30;71.73
141;BME280;65;48.778;9.160;2022-08-19T04:10:35;98066.31;;;20.24;72.14
141;BME280;65;48.778;9.160;2022-08-19T04:13:00;98068.34;;;20.30;72.05
141;BME280;65;48.778;9.160;2022-08-19T04:15:26;98064.81;;;20.29;72.35
141;BME280;65;48.778;9.160;2022-08-19T04:17:52;98064.16;;;20.27;71.70
141;BME280;65;48.778;9.160;2022-08-19T04:20:18;98063.47;;;20.25;71.33
141;BME280;65;48.778;9.160;2022-08-19T04:22:43;98060.06;;;20.23;71.54
141;BME280;65;48.778;9.160;2022-08-19T04:25:09;98058.44;;;20.30;71.23
141;BME280;65;48.778;9.160;2022-08-19T04:27:36;98058.63;;;20.29;71.14
141;BME280;65;48.778;9.160;2022-08-19T04:30:02;98061.31;;;20.29;71.45
141;BME280;65;48.778;9.160;2022-08-19T04:32:27;98064.66;;;20.31;71.59
141;BME280;65;48.778;9.160;2022-08-19T04:34:53;98058.44;;;20.30;71.21
141;BME280;65;48.778;9.160;2022-08-19T04:37:25;98058.13;;;20.33;71.02
141;BME280;65;48.778;9.160;2022-08-19T04:39:51;98053.25;;;20.29;71.17
141;BME280;65;48.778;9.160;2022-08-19T04:42:35;98055.28;;;20.35;71.11
141;BME280;65;48.778;9.160;2022-08-19T04:45:08;98062.50;;;20.34;71.08
141;BME280;65;48.778;9.160;2022-08-19T04:47:36;98066.19;;;20.33;71.37
141;BME280;65;48.778;9.160;2022-08-19T04:50:03;98069.38;;;20.37;71.07
141;BME280;65;48.778;9.160;2022-08-19T04:52:29;98063.72;;;20.40;71.07
141;BME280;65;48.778;9.160;2022-08-19T04:54:57;98070.94;;;20.39;70.84
141;BME280;65;48.778;9.160;2022-08-19T04:57:22;98068.53;;;20.36;71.01
141;BME280;65;48.778;9.160;2022-08-19T04:59:48;98064.16;;;20.27;71.54
141;BME280;65;48.778;9.160;2022-08-19T05:02:13;98072.03;;;20.29;72.19
141;BME280;65;48.778;9.160;2022-08-19T05:04:39;98074.06;;;20.35;71.34
141;BME280;65;48.778;9.160;2022-08-19T05:07:06;98071.78;;;20.40;71.11
141;BME280;65;48.778;9.160;2022-08-19T05:09:31;98075.31;;;20.40;71.53
141;BME280;65;48.778;9.160;2022-08-19T05:11:57;98082.38;;;20.49;71.13
141;BME280;65;48.778;9.160;2022-08-19T05:14:22;98081.03;;;20.45;71.27
141;BME280;65;48.778;9.160;2022-08-19T05:16:48;98089.44;;;20.50;70.99
141;BME280;65;48.778;9.160;2022-08-19T05:19:13;98097.84;;;20.56;70.83
141;BME280;65;48.778;9.160;2022-08-19T05:21:59;98103.06;;;20.57;71.08
141;BME280;65;48.778;9.160;2022-08-19T05:24:43;98111.28;;;20.56;71.14
141;BME280;65;48.778;9.160;2022-08-19T05:27:08;98122.69;;;20.58;70.90
141;BME280;65;48.778;9.160;2022-08-19T05:29:34;98136.81;;;20.60;70.49
141;BME280;65;48.778;9.160;2022-08-19T05:32:00;98143.69;;;20.62;70.81
141;BME280;65;48.778;9.160;2022-08-19T05:34:27;98149.41;;;20.67;70.88
141;BME280;65;48.778;9.160;2022-08-19T05:36:57;98163.22;;;20.72;70.74
141;BME280;65;48.778;9.160;2022-08-19T05:39:26;98167.25;;;20.76;70.06
141;BME280;65;48.778;9.160;2022-08-19T05:41:57;98165.41;;;20.77;69.96
141;BME280;65;48.778;9.160;2022-08-19T05:44:25;98162.41;;;20.80;69.98
141;BME280;65;48.778;9.160;2022-08-19T05:46:51;98161.00;;;20.68;70.22
141;BME280;65;48.778;9.160;2022-08-19T05:49:21;98163.66;;;20.60;70.56
141;BME280;65;48.778;9.160;2022-08-19T05:51:47;98161.69;;;20.70;70.61
141;BME280;65;48.778;9.160;2022-08-19T05:54:13;98152.78;;;20.69;70.42
141;BME280;65;48.778;9.160;2022-08-19T05:56:40;98157.84;;;20.72;70.13
141;BME280;65;48.778;9.160;2022-08-19T05:59:08;98165.72;;;20.74;70.27
141;BME280;65;48.778;9.160;2022-08-19T06:01:41;98153.94;;;20.67;70.24
141;BME280;65;48.778;9.160;2022-08-19T06:04:07;98153.44;;;20.63;70.68
141;BME280;65;48.778;9.160;2022-08-19T06:06:33;98162.38;;;20.72;70.14
141;BME280;65;48.778;9.160;2022-08-19T06:09:00;98156.00;;;20.73;70.23
141;BME280;65;48.778;9.160;2022-08-19T06:11:49;98160.56;;;20.80;69.90
141;BME280;65;48.778;9.160;2022-08-19T06:14:20;98166.56;;;20.74;70.24
141;BME280;65;48.778;9.160;2022-08-19T06:16:46;98163.09;;;20.82;69.89
141;BME280;65;48.778;9.160;2022-08-19T06:19:15;98162.78;;;20.85;69.90
141;BME280;65;48.778;9.160;2022-08-19T06:21:42;98154.75;;;20.93;69.42
141;BME280;65;48.778;9.160;2022-08-19T06:24:11;98151.56;;;20.98;69.21
141;BME280;65;48.778;9.160;2022-08-19T06:26:39;98159.13;;;21.02;68.85
141;BME280;65;48.778;9.160;2022-08-19T06:29:06;98155.13;;;21.06;68.93
141;BME280;65;48.778;9.160;2022-08-19T06:31:33;98163.19;;;21.06;68.82
141;BME280;65;48.778;9.160;2022-08-19T06:34:00;98156.97;;;21.06;69.08
141;BME280;65;48.778;9.160;2022-08-19T06:36:37;98158.97;;;21.04;69.65
141;BME280;65;48.778;9.160;2022-08-19T06:39:09;98160.50;;;21.06;69.36
141;BME280;65;48.778;9.160;2022-08-19T06:41:36;98162.16;;;20.99;69.17
141;BME280;65;48.778;9.160;2022-08-19T06:44:02;98167.84;;;20.96;69.46
141;BME280;65;48.778;9.160;2022-08-19T06:46:28;98165.81;;;20.90;70.55
141;BME280;65;48.778;9.160;2022-08-19T06:48:53;98168.16;;;20.85;70.93
141;BME280;65;48.778;9.160;2022-08-19T06:51:20;98168.31;;;20.83;72.18
141;BME280;65;48.778;9.160;2022-08-19T06:53:48;98171.78;;;20.76;72.98
141;BME280;65;48.778;9.160;2022-08-19T06:56:16;98169.72;;;20.62;73.98
141;BME280;65;48.778;9.160;2022-08-19T06:58:44;98167.66;;;20.56;75.37
141;BME280;65;48.778;9.160;2022-08-19T07:01:12;98170.31;;;20.47;75.27
141;BME280;65;48.778;9.160;2022-08-19T07:03:38;98172.25;;;20.37;74.78
141;BME280;65;48.778;9.160;2022-08-19T07:06:10;98175.72;;;20.30;75.57
141;BME280;65;48.778;9.160;2022-08-19T07:08:37;98174.75;;;20.39;75.97
141;BME280;65;48.778;9.160;2022-08-19T07:11:08;98173.78;;;20.40;75.76
141;BME280;65;48.778;9.160;2022-08-19T07:13:35;98179.16;;;20.40;74.68
141;BME280;65;48.778;9.160;2022-08-19T07:16:10;98181.72;;;20.49;74.82
141;BME280;65;48.778;9.160;2022-08-19T07:18:36;98181.41;;;20.52;74.21
141;BME280;65;48.778;9.160;2022-08-19T07:21:17;98189.47;;;20.52;73.39
141;BME280;65;48.778;9.160;2022-08-19T07:23:44;98191.31;;;20.52;73.52
141;BME280;65;48.778;9.160;2022-08-19T07:26:16;98192.84;;;20.55;73.57
141;BME280;65;48.778;9.160;2022-08-19T07:28:42;98188.50;;;20.62;73.53
141;BME280;65;48.778;9.160;2022-08-19T07:31:11;98183.78;;;20.56;72.90
141;BME280;65;48.778;9.160;2022-08-19T07:33:39;98179.47;;;20.71;72.39
141;BME280;65;48.778;9.160;2022-08-19T07:36:07;98192.91;;;20.71;72.39
141;BME280;65;48.778;9.160;2022-08-19T07:38:33;98188.56;;;20.78;71.84
141;BME280;65;48.778;9.160;2022-08-19T07:41:00;98187.28;;;20.82;71.86
141;BME280;65;48.778;9.160;2022-08-19T07:43:26;98180.00;;;20.74;71.53
141;BME280;65;48.778;9.160;2022-08-19T07:45:53;98189.22;;;20.72;71.73
141;BME280;65;48.778;9.160;2022-08-19T07:48:26;98183.53;;;20.75;71.98
141;BME280;65;48.778;9.160;2022-08-19T07:51:11;98175.81;;;20.80;71.59
141;BME280;65;48.778;9.160;2022-08-19T07:53:37;98189.13;;;20.81;71.87
141;BME280;65;48.778;9.160;2022-08-19T07:56:03;98191.94;;;20.80;70.89
141;BME280;65;48.778;9.160;2022-08-19T07:58:32;98191.66;;;20.83;71.20
141;BME280;65;48.778;9.160;2022-08-19T08:00:58;98202.41;;;20.83;71.10
141;BME280;65;48.778;9.160;2022-08-19T08:03:24;98196.06;;;20.92;70.83
141;BME280;65;48.778;9.160;2022-08-19T08:06:11;98193.34;;;20.84;71.39
141;BME280;65;48.778;9.160;2022-08-19T08:08:55;98192.16;;;20.87;70.62
141;BME280;65;48.778;9.160;2022-08-19T08:11:57;98197.03;;;20.83;70.48
141;BME280;65;48.778;9.160;2022-08-19T08:14:29;98195.88;;;20.86;70.65
141;BME280;65;48.778;9.160;2022-08-19T08:16:57;98202.44;;;20.91;70.13
141;BME280;65;48.778;9.160;2022-08-19T08:19:26;98201.78;;;20.97;69.88
141;BME280;65;48.778;9.160;2022-08-19T08:21:56;98208.16;;;20.96;70.33
141;BME280;65;48.778;9.160;2022-08-19T08:24:23;98204.16;;;21.00;69.97
141;BME280;65;48.778;9.160;2022-08-19T08:26:49;98207.50;;;21.02;69.95
141;BME280;65;48.778;9.160;2022-08-19T08:29:14;98205.66;;;21.03;70.15
141;BME280;65;48.778;9.160;2022-08-19T08:31:43;98211.91;;;21.11;69.56
141;BME280;65;48.778;9.160;2022-08-19T08:34:10;98200.34;;;21.19;69.57
141;BME280;65;48.778;9.160;2022-08-19T08:36:41;98203.91;;;21.28;68.40
141;BME280;65;48.778;9.160;2022-08-19T08:39:16;98211.91;;;21.11;69.36
141;BME280;65;48.778;9.160;2022-08-19T08:47:03;98211.59;;;21.14;70.10
141;BME280;65;48.778;9.160;2022-08-19T08:49:53;98205.56;;;21.21;71.29
141;BME280;65;48.778;9.160;2022-08-19T08:52:39;98196.09;;;21.08;72.74
141;BME280;65;48.778;9.160;2022-08-19T08:55:15;98196.72;;;20.94;74.54
141;BME280;65;48.778;9.160;2022-08-19T08:57:52;98203.47;;;20.98;74.14
141;BME280;65;48.778;9.160;2022-08-19T09:00:42;98208.34;;;21.03;73.35
141;BME280;65;48.778;9.160;2022-08-19T09:03:20;98205.88;;;21.17;73.70
141;BME280;65;48.778;9.160;2022-08-19T09:06:38;98210.09;;;21.20;74.69
141;BME280;65;48.778;9.160;2022-08-19T09:12:28;98208.88;;;21.06;73.06
141;BME280;65;48.778;9.160;2022-08-19T09:15:08;98210.38;;;21.01;72.80
141;BME280;65;48.778;9.160;2022-08-19T09:17:34;98212.41;;;21.07;73.28
141;BME280;65;48.778;9.160;2022-08-19T09:20:17;98215.13;;;21.15;72.03
141;BME280;65;48.778;9.160;2022-08-19T09:22:43;98212.81;;;21.28;71.34
141;BME280;65;48.778;9.160;2022-08-19T09:25:15;98228.03;;;21.54;71.46
141;BME280;65;48.778;9.160;2022-08-19T09:27:41;98214.78;;;21.76;70.22
141;BME280;65;48.778;9.160;2022-08-19T09:30:10;98216.81;;;21.91;68.77
141;BME280;65;48.778;9.160;2022-08-19T09:32:36;98216.47;;;21.94;68.42
141;BME280;65;48.778;9.160;2022-08-19T09:35:12;98215.16;;;21.98;68.07
141;BME280;65;48.778;9.160;2022-08-19T09:37:38;98213.13;;;22.00;67.98
141;BME280;65;48.778;9.160;2022-08-19T09:40:04;98213.00;;;22.18;67.68
141;BME280;65;48.778;9.160;2022-08-19T09:42:30;98211.44;;;22.39;67.13
141;BME280;65;48.778;9.160;2022-08-19T09:44:55;98208.88;;;22.54;66.14
141;BME280;65;48.778;9.160;2022-08-19T09:47:20;98212.25;;;22.64;65.45
141;BME280;65;48.778;9.160;2022-08-19T09:49:46;98207.69;;;22.81;64.83
141;BME280;65;48.778;9.160;2022-08-19T09:52:14;98219.28;;;22.90;64.46
141;BME280;65;48.778;9.160;2022-08-19T09:54:42;98211.72;;;22.85;65.31
141;BME280;65;48.778;9.160;2022-08-19T09:57:07;98226.38;;;22.83;64.77
141;BME280;65;48.778;9.160;2022-08-19T09:59:33;98223.16;;;22.87;64.78
141;BME280;65;48.778;9.160;2022-08-19T10:01:58;98230.53;;;22.93;64.92
141;BME280;65;48.778;9.160;2022-08-19T10:07:09;98219.09;;;22.91;64.17
141;BME280;65;48.778;9.160;2022-08-19T10:09:35;98220.47;;;22.87;64.24
141;BME280;65;48.778;9.160;2022-08-19T10:12:02;98216.06;;;22.94;63.90
141;BME280;65;48.778;9.160;2022-08-19T10:14:28;98222.94;;;22.97;64.21
141;BME280;65;48.778;9.160;2022-08-19T10:16:53;98219.69;;;23.10;63.36
141;BME280;65;48.778;9.160;2022-08-19T10:19:19;98219.19;;;23.14;63.12
141;BME280;65;48.778;9.160;2022-08-19T10:21:46;98216.81;;;23.19;62.81
141;BME280;65;48.778;9.160;2022-08-19T10:24:12;98218.31;;;23.22;62.99
141;BME280;65;48.778;9.160;2022-08-19T10:26:39;98222.03;;;23.21;62.90
141;BME280;65;48.778;9.160;2022-08-19T10:29:07;98214.28;;;23.18;62.85
141;BME280;65;48.778;9.160;2022-08-19T10:31:34;98224.31;;;23.32;62.20
141;BME280;65;48.778;9.160;2022-08-19T10:34:00;98212.25;;;23.20;62.31
141;BME280;65;48.778;9.160;2022-08-19T10:36:35;98215.81;;;23.12;63.27
141;BME280;65;48.778;9.160;2022-08-19T10:39:04;98215.22;;;23.33;61.98
141;BME280;65;48.778;9.160;2022-08-19T10:41:32;98208.22;;;23.47;61.95
141;BME280;65;48.778;9.160;2022-08-19T10:44:01;98200.59;;;23.58;61.69
141;BME280;65;48.778;9.160;2022-08-19T10:46:27;98200.84;;;23.72;60.59
141;BME280;65;48.778;9.160;2022-08-19T10:48:58;98204.56;;;23.71;60.45
141;BME280;65;48.778;9.160;2022-08-19T10:51:23;98198.75;;;23.82;60.97
141;BME280;65;48.778;9.160;2022-08-19T10:54:07;98196.25;;;24.18;58.67
141;BME280;65;48.778;9.160;2022-08-19T10:56:33;98194.34;;;24.04;59.05
141;BME280;65;48.778;9.160;2022-08-19T10:59:23;98202.13;;;23.84;59.18
141;BME280;65;48.778;9.160;2022-08-19T11:01:50;98204.72;;;23.69;60.06
141;BME280;65;48.778;9.160;2022-08-19T11:04:17;98204.91;;;23.67;59.79
141;BME280;65;48.778;9.160;2022-08-19T11:06:47;98207.00;;;23.57;59.95
141;BME280;65;48.778;9.160;2022-08-19T11:09:18;98205.16;;;23.50;60.16
141;BME280;65;48.778;9.160;2022-08-19T11:11:44;98206.34;;;23.55;59.88
141;BME280;65;48.778;9.160;2022-08-19T11:14:12;98198.66;;;23.67;59.59
141;BME280;65;48.778;9.160;2022-08-19T11:16:39;98202.53;;;23.73;59.64
141;BME280;65;48.778;9.160;2022-08-19T11:19:09;98201.97;;;24.00;58.94
141;BME280;65;48.778;9.160;2022-08-19T11:21:42;98197.00;;;24.35;58.26
141;BME280;65;48.778;9.160;2022-08-19T11:24:12;98200.47;;;24.73;56.33
141;BME280;65;48.778;9.160;2022-08-19T11:26:39;98194.63;;;24.99;55.79
141;BME280;65;48.778;9.160;2022-08-19T11:29:06;98188.72;;;25.25;54.55
141;BME280;65;48.778;9.160;2022-08-19T11:31:34;98187.28;;;25.29;54.53
141;BME280;65;48.778;9.160;2022-08-19T11:34:04;98200.78;;;25.07;54.40
141;BME280;65;48.778;9.160;2022-08-19T11:36:30;98190.34;;;25.04;55.65
141;BME280;65;48.778;9.160;2022-08-19T11:38:57;98187.25;;;24.92;54.83
141;BME280;65;48.778;9.160;2022-08-19T11:41:23;98196.19;;;25.08;54.37
141;BME280;65;48.778;9.160;2022-08-19T11:43:53;98185.19;;;24.95;54.66
141;BME280;65;48.778;9.160;2022-08-19T11:46:22;98188.94;;;25.08;53.81
141;BME280;65;48.778;9.160;2022-08-19T11:48:48;98191.72;;;25.15;53.54
141;BME280;65;48.778;9.160;2022-08-19T11:51:23;98196.97;;;25.02;53.28
141;BME280;65;48.778;9.160;2022-08-19T11:53:50;98191.34;;;24.88;54.17
141;BME280;65;48.778;9.160;2022-08-19T11:56:17;98192.66;;;24.92;54.06
141;BME280;65;48.778;9.160;2022-08-19T11:58:44;98194.06;;;25.03;52.99
141;BME280;65;48.778;9.160;2022-08-19T12:01:11;98194.22;;;25.16;53.34
141;BME280;65;48.778;9.160;2022-08-19T12:03:38;98181.69;;;25.30;53.02
141;BME280;65;48.778;9.160;2022-08-19T12:06:08;98183.81;;;25.35;52.67
141;BME280;65;48.778;9.160;2022-08-19T12:08:35;98184.97;;;25.26;53.23
141;BME280;65;48.778;9.160;2022-08-19T12:11:01;98182.69;;;25.08;53.61
141;BME280;65;48.778;9.160;2022-08-19T12:13:29;98183.91;;;25.05;53.57
141;BME280;65;48.778;9.160;2022-08-19T12:15:55;98187.16;;;25.01;53.92
141;BME280;65;48.778;9.160;2022-08-19T12:18:20;98181.19;;;25.05;53.66
141;BME280;65;48.778;9.160;2022-08-19T12:20:45;98190.34;;;25.04;53.32
141;BME280;65;48.778;9.160;2022-08-19T12:23:12;98181.84;;;24.92;53.24
141;BME280;65;48.778;9.160;2022-08-19T12:25:44;98177.44;;;24.77;54.30
141;BME280;65;48.778;9.160;2022-08-19T12:28:20;98178.47;;;24.76;54.16
141;BME280;65;48.778;9.160;2022-08-19T12:30:47;98176.97;;;24.73;54.13
141;BME280;65;48.778;9.160;2022-08-19T12:33:13;98178.56;;;24.68;54.19
141;BME280;65;48.778;9.160;2022-08-19T12:35:43;98178.84;;;24.58;54.89
141;BME280;65;48.778;9.160;2022-08-19T12:38:12;98182.84;;;24.47;55.56
141;BME280;65;48.778;9.160;2022-08-19T12:40:38;98179.19;;;24.40;55.77
141;BME280;65;48.778;9.160;2022-08-19T12:43:06;98172.38;;;24.30;56.32
141;BME280;65;48.778;9.160;2022-08-19T12:45:32;98184.22;;;24.28;56.89
141;BME280;65;48.778;9.160;2022-08-19T12:47:57;98175.28;;;24.28;57.50
141;BME280;65;48.778;9.160;2022-08-19T12:50:23;98181.34;;;24.22;57.68
141;BME280;65;48.778;9.160;2022-08-19T12:52:49;98174.72;;;24.33;57.69
141;BME280;65;48.778;9.160;2022-08-19T12:55:14;98171.47;;;24.52;57.40
141;BME280;65;48.778;9.160;2022-08-19T12:57:40;98174.56;;;24.64;56.15
141;BME280;65;48.778;9.160;2022-08-19T13:00:09;98170.56;;;25.04;55.04
141;BME280;65;48.778;9.160;2022-08-19T13:02:37;98185.34;;;25.22;54.21
141;BME280;65;48.778;9.160;2022-08-19T13:05:04;98183.72;;;25.43;54.64
141;BME280;65;48.778;9.160;2022-08-19T13:07:32;98183.47;;;25.23;55.51
141;BME280;65;48.778;9.160;2022-08-19T13:09:57;98185.81;;;24.67;56.90
141;BME280;65;48.778;9.160;2022-08-19T13:12:23;98193.47;;;24.49;57.88
141;BME280;65;48.778;9.160;2022-08-19T13:14:52;98191.97;;;24.23;58.13
141;BME280;65;48.778;9.160;2022-08-19T13:17:19;98194.50;;;24.25;58.67
141;BME280;65;48.778;9.160;2022-08-19T13:19:45;98201.09;;;24.22;58.54
141;BME280;65;48.778;9.160;2022-08-19T13:22:10;98203.63;;;24.24;58.82
141;BME280;65;48.778;9.160;2022-08-19T13:24:37;98197.53;;;24.30;58.38
141;BME280;65;48.778;9.160;2022-08-19T13:27:02;98194.94;;;24.14;59.26
141;BME280;65;48.778;9.160;2022-08-19T13:29:28;98199.59;;;24.20;59.70
141;BME280;65;48.778;9.160;2022-08-19T13:32:12;98199.59;;;24.20;59.43
141;BME280;65;48.778;9.160;2022-08-19T13:34:56;98196.34;;;24.24;60.04
141;BME280;65;48.778;9.160;2022-08-19T13:37:21;98195.59;;;24.16;60.44
141;BME280;65;48.778;9.160;2022-08-19T13:40:07;98205.19;;;24.18;62.65
141;BME280;65;48.778;9.160;2022-08-19T13:42:36;98203.25;;;23.89;63.62
141;BME280;65;48.778;9.160;2022-08-19T13:45:02;98198.94;;;23.80;64.13
141;BME280;65;48.778;9.160;2022-08-19T13:47:27;98200.44;;;23.52;66.07
141;BME280;65;48.778;9.160;2022-08-19T13:49:53;98204.16;;;23.20;67.95
141;BME280;65;48.778;9.160;2022-08-19T13:52:18;98207.41;;;23.15;68.33
141;BME280;65;48.778;9.160;2022-08-19T13:54:43;98220.06;;;22.98;69.49
141;BME280;65;48.778;9.160;2022-08-19T13:57:09;98216.38;;;22.99;69.63
141;BME280;65;48.778;9.160;2022-08-19T13:59:34;98221.44;;;22.94;70.24
141;BME280;65;48.778;9.160;2022-08-19T14:02:00;98226.88;;;22.86;70.41
141;BME280;65;48.778;9.160;2022-08-19T14:04:26;98229.22;;;22.89;71.78
141;BME280;65;48.778;9.160;2022-08-19T14:06:51;98227.75;;;22.62;74.74
141;BME280;65;48.778;9.160;2022-08-19T14:09:17;98226.56;;;21.84;78.44
141;BME280;65;48.778;9.160;2022-08-19T14:11:42;98225.03;;;21.81;79.47
141;BME280;65;48.778;9.160;2022-08-19T14:14:10;98229.63;;;21.97;78.72
141;BME280;65;48.778;9.160;2022-08-19T14:16:36;98228.66;;;22.06;77.98
141;BME280;65;48.778;9.160;2022-08-19T14:19:01;98227.44;;;22.25;77.17